sensor_id;sensor_type;location;lat;lon;timestamp;pressure;altitude;pressure_sealevel;temperature;humidity
32324;BME280;25666;44.350;9.222;2023-02-27T00:00:08;100767.28;;;6.17;100.00
32324;BME280;25666;44.350;9.222;2023-02-27T00:02:47;100780.91;;;6.05;100.00
32324;BME280;25666;44.350;9.222;2023-02-27T00:05:13;100764.69;;;6.21;100.00
32324;BME280;25666;44.350;9.222;2023-02-27T00:07:39;100766.50;;;6.17;100.00
32324;BME280;25666;44.350;9.222;2023-02-27T00:10:07;100761.00;;;6.25;100.00
32324;BME280;25666;44.350;9.222;2023-02-27T00:12:33;100762.56;;;6.09;100.00
32324;BME280;25666;44.350;9.222;2023-02-27T00:15:10;100774.88;;;5.95;100.00
32324;BME280;25666;44.350;9.222;2023-02-27T00:17:35;100774.06;;;5.72;100.00
32324;BME280;25666;44.350;9.222;2023-02-27T00:20:02;100781.09;;;5.78;100.00
32324;BME280;25666;44.350;9.222;2023-02-27T00:22:28;100777.13;;;5.70;100.00
32324;BME280;25666;44.350;9.222;2023-02-27T00:24:53;100780.88;;;5.66;100.00
32324;BME280;25666;44.350;9.222;2023-02-27T00:27:19;100768.06;;;5.70;100.00
32324;BME280;25666;44.350;9.222;2023-02-27T00:30:04;100779.25;;;5.73;100.00
32324;BME280;25666;44.350;9.222;2023-02-27T00:32:31;100787.66;;;5.60;100.00
32324;BME280;25666;44.350;9.222;2023-02-27T00:34:56;100798.66;;;5.29;100.00
32324;BME280;25666;44.350;9.222;2023-02-27T00:37:22;100790.19;;;5.48;100.00
32324;BME280;25666;44.350;9.222;2023-02-27T00:39:47;100802.84;;;5.26;100.00
32324;BME280;25666;44.350;9.222;2023-02-27T00:42:14;100792.41;;;5.46;100.00
32324;BME280;25666;44.350;9.222;2023-02-27T00:44:40;100804.44;;;5.41;100.00
32324;BME280;25666;44.350;9.222;2023-02-27T00:47:05;100801.22;;;5.25;100.00
32324;BME280;25666;44.350;9.222;2023-02-27T00:49:31;100801.53;;;5.24;100.00
32324;BME280;25666;44.350;9.222;2023-02-27T00:51:57;100796.69;;;5.29;100.00
32324;BME280;25666;44.350;9.222;2023-02-27T00:54:22;100818.41;;;5.45;100.00
32324;BME280;25666;44.350;9.222;2023-02-27T00:56:48;100794.69;;;5.44;100.00
32324;BME280;25666;44.350;9.222;2023-02-27T00:59:13;100805.03;;;5.60;100.00
32324;BME280;25666;44.350;9.222;2023-02-27T01:01:39;100802.19;;;5.74;100.00
32324;BME280;25666;44.350;9.222;2023-02-27T01:04:05;100799.38;;;5.65;100.00
32324;BME280;25666;44.350;9.222;2023-02-27T01:06:30;100809.78;;;5.68;100.00
32324;BME280;25666;44.350;9.222;2023-02-27T01:08:56;100821.91;;;5.59;100.00
32324;BME280;25666;44.350;9.222;2023-02-27T01:11:23;100817.69;;;5.61;100.00
32324;BME280;25666;44.350;9.222;2023-02-27T01:13:48;100826.16;;;5.65;100.00
32324;BME280;25666;44.350;9.222;2023-02-27T01:16:15;100830.56;;;5.66;100.00
32324;BME280;25666;44.350;9.222;2023-02-27T01:18:41;100837.41;;;5.90;100.00
32324;BME280;25666;44.350;9.222;2023-02-27T01:21:07;100833.41;;;5.83;100.00
32324;BME280;25666;44.350;9.222;2023-02-27T01:23:32;100824.25;;;5.96;100.00
32324;BME280;25666;44.350;9.222;2023-02-27T01:25:58;100839.84;;;5.92;100.00
32324;BME280;25666;44.350;9.222;2023-02-27T01:28:25;100820.56;;;6.01;100.00
32324;BME280;25666;44.350;9.222;2023-02-27T01:30:51;100831.88;;;5.90;100.00
32324;BME280;25666;44.350;9.222;2023-02-27T01:33:16;100838.59;;;5.76;100.00
32324;BME280;25666;44.350;9.222;2023-02-27T01:35:43;100843.50;;;5.79;100.00
32324;BME280;25666;44.350;9.222;2023-02-27T01:38:10;100841.34;;;5.76;100.00
32324;BME280;25666;44.350;9.222;2023-02-27T01:40:38;100841.69;;;5.83;100.00
32324;BME280;25666;44.350;9.222;2023-02-27T01:43:06;100833.06;;;5.76;100.00
32324;BME280;25666;44.350;9.222;2023-02-27T01:45:42;100845.72;;;5.77;100.00
32324;BME280;25666;44.350;9.222;2023-02-27T01:50:49;100836.19;;;5.83;100.00
32324;BME280;25666;44.350;9.222;2023-02-27T01:53:17;100825.28;;;5.78;100.00
32324;BME280;25666;44.350;9.222;2023-02-27T01:55:45;100847.97;;;5.88;100.00
32324;BME280;25666;44.350;9.222;2023-02-27T01:58:13;100850.44;;;5.76;100.00
32324;BME280;25666;44.350;9.222;2023-02-27T02:00:40;100833.25;;;5.79;100.00
32324;BME280;25666;44.350;9.222;2023-02-27T02:03:13;100840.41;;;5.80;100.00
32324;BME280;25666;44.350;9.222;2023-02-27T02:05:41;100838.59;;;5.98;100.00
32324;BME280;25666;44.350;9.222;2023-02-27T02:08:08;100825.47;;;5.81;100.00
32324;BME280;25666;44.350;9.222;2023-02-27T02:10:35;100830.25;;;5.89;100.00
32324;BME280;25666;44.350;9.222;2023-02-27T02:13:02;100851.03;;;5.87;100.00
32324;BME280;25666;44.350;9.222;2023-02-27T02:15:33;100852.53;;;5.93;100.00
32324;BME280;25666;44.350;9.222;2023-02-27T02:19:05;100844.34;;;6.10;100.00
32324;BME280;25666;44.350;9.222;2023-02-27T02:27:02;100838.75;;;6.32;100.00
32324;BME280;25666;44.350;9.222;2023-02-27T02:40:54;100851.03;;;6.57;100.00
32324;BME280;25666;44.350;9.222;2023-02-27T02:43:42;100840.09;;;6.52;100.00
32324;BME280;25666;44.350;9.222;2023-02-27T02:46:22;100840.91;;;6.61;100.00
32324;BME280;25666;44.350;9.222;2023-02-27T02:48:55;100852.97;;;6.65;100.00
32324;BME280;25666;44.350;9.222;2023-02-27T02:51:36;100849.09;;;6.75;100.00
32324;BME280;25666;44.350;9.222;2023-02-27T02:56:45;100855.44;;;6.75;100.00
32324;BME280;25666;44.350;9.222;2023-02-27T02:59:17;100860.97;;;6.75;100.00
32324;BME280;25666;44.350;9.222;2023-02-27T03:01:55;100850.59;;;6.89;100.00
32324;BME280;25666;44.350;9.222;2023-02-27T03:06:56;100869.94;;;6.89;100.00
32324;BME280;25666;44.350;9.222;2023-02-27T03:09:44;100864.94;;;7.00;100.00
32324;BME280;25666;44.350;9.222;2023-02-27T03:12:13;100876.31;;;6.98;100.00
32324;BME280;25666;44.350;9.222;2023-02-27T03:14:53;100893.44;;;7.00;100.00
32324;BME280;25666;44.350;9.222;2023-02-27T03:17:29;100902.72;;;7.05;100.00
32324;BME280;25666;44.350;9.222;2023-02-27T03:20:02;100903.38;;;7.10;100.00
32324;BME280;25666;44.350;9.222;2023-02-27T03:22:35;100905.81;;;7.12;100.00
32324;BME280;25666;44.350;9.222;2023-02-27T03:25:05;100914.94;;;7.12;100.00
32324;BME280;25666;44.350;9.222;2023-02-27T03:27:37;100923.09;;;7.17;100.00
32324;BME280;25666;44.350;9.222;2023-02-27T03:33:04;100938.06;;;7.25;100.00
32324;BME280;25666;44.350;9.222;2023-02-27T03:35:42;100954.34;;;7.18;100.00
32324;BME280;25666;44.350;9.222;2023-02-27T03:38:23;100961.38;;;7.32;100.00
32324;BME280;25666;44.350;9.222;2023-02-27T03:43:50;100970.53;;;7.41;100.00
32324;BME280;25666;44.350;9.222;2023-02-27T03:46:21;100970.19;;;7.34;100.00
32324;BME280;25666;44.350;9.222;2023-02-27T03:48:49;100976.28;;;7.06;100.00
32324;BME280;25666;44.350;9.222;2023-02-27T03:51:17;100990.72;;;6.85;100.00
32324;BME280;25666;44.350;9.222;2023-02-27T03:56:11;101010.22;;;6.50;100.00
32324;BME280;25666;44.350;9.222;2023-02-27T03:58:38;101006.53;;;6.32;100.00
32324;BME280;25666;44.350;9.222;2023-02-27T04:01:04;101009.69;;;6.17;100.00
32324;BME280;25666;44.350;9.222;2023-02-27T04:03:33;101007.41;;;5.97;100.00
32324;BME280;25666;44.350;9.222;2023-02-27T04:06:00;101003.63;;;5.92;100.00
32324;BME280;25666;44.350;9.222;2023-02-27T04:09:10;101005.41;;;5.88;100.00
32324;BME280;25666;44.350;9.222;2023-02-27T04:11:55;101011.06;;;5.70;100.00
32324;BME280;25666;44.350;9.222;2023-02-27T04:17:25;101007.56;;;5.78;100.00
32324;BME280;25666;44.350;9.222;2023-02-27T04:22:34;101006.53;;;5.74;100.00
32324;BME280;25666;44.350;9.222;2023-02-27T04:33:12;101002.72;;;5.83;100.00
32324;BME280;25666;44.350;9.222;2023-02-27T04:38:17;101023.41;;;5.86;100.00
32324;BME280;25666;44.350;9.222;2023-02-27T04:40:49;101018.22;;;6.07;100.00
32324;BME280;25666;44.350;9.222;2023-02-27T04:43:18;101010.75;;;6.07;100.00
32324;BME280;25666;44.350;9.222;2023-02-27T04:45:45;101011.88;;;6.28;100.00
32324;BME280;25666;44.350;9.222;2023-02-27T04:48:47;101020.47;;;6.27;100.00
32324;BME280;25666;44.350;9.222;2023-02-27T04:51:17;101017.16;;;6.38;100.00
32324;BME280;25666;44.350;9.222;2023-02-27T04:54:02;101025.66;;;6.42;100.00
32324;BME280;25666;44.350;9.222;2023-02-27T04:56:33;101014.09;;;6.48;100.00
32324;BME280;25666;44.350;9.222;2023-02-27T04:59:03;101022.78;;;6.56;100.00
32324;BME280;25666;44.350;9.222;2023-02-27T05:01:38;101043.44;;;6.58;100.00
32324;BME280;25666;44.350;9.222;2023-02-27T05:04:06;101036.97;;;6.63;100.00
32324;BME280;25666;44.350;9.222;2023-02-27T05:06:35;101046.41;;;6.62;100.00
32324;BME280;25666;44.350;9.222;2023-02-27T05:09:11;101044.78;;;6.61;100.00
32324;BME280;25666;44.350;9.222;2023-02-27T05:11:52;101045.88;;;6.51;100.00
32324;BME280;25666;44.350;9.222;2023-02-27T05:17:05;101058.19;;;6.45;100.00
32324;BME280;25666;44.350;9.222;2023-02-27T05:19:32;101046.16;;;6.50;100.00
32324;BME280;25666;44.350;9.222;2023-02-27T05:22:21;101050.53;;;6.42;100.00
32324;BME280;25666;44.350;9.222;2023-02-27T05:25:08;101046.75;;;6.38;100.00
32324;BME280;25666;44.350;9.222;2023-02-27T05:27:43;101053.34;;;6.28;100.00
32324;BME280;25666;44.350;9.222;2023-02-27T05:30:22;101047.69;;;6.33;100.00
32324;BME280;25666;44.350;9.222;2023-02-27T05:32:57;101049.47;;;6.29;100.00
32324;BME280;25666;44.350;9.222;2023-02-27T05:35:32;101065.41;;;6.32;100.00
32324;BME280;25666;44.350;9.222;2023-02-27T05:38:22;101043.16;;;6.37;100.00
32324;BME280;25666;44.350;9.222;2023-02-27T05:40:54;101050.88;;;6.27;100.00
32324;BME280;25666;44.350;9.222;2023-02-27T05:43:26;101050.75;;;6.54;100.00
32324;BME280;25666;44.350;9.222;2023-02-27T05:45:58;101047.19;;;6.54;100.00
32324;BME280;25666;44.350;9.222;2023-02-27T05:48:35;101049.25;;;6.48;100.00
32324;BME280;25666;44.350;9.222;2023-02-27T05:51:05;101043.41;;;6.50;100.00
32324;BME280;25666;44.350;9.222;2023-02-27T05:53:35;101038.25;;;6.57;100.00
32324;BME280;25666;44.350;9.222;2023-02-27T05:56:05;101045.31;;;6.71;100.00
32324;BME280;25666;44.350;9.222;2023-02-27T05:58:41;101061.16;;;6.79;100.00
32324;BME280;25666;44.350;9.222;2023-02-27T06:01:09;101061.84;;;6.85;100.00
32324;BME280;25666;44.350;9.222;2023-02-27T06:03:36;101071.94;;;6.89;100.00
32324;BME280;25666;44.350;9.222;2023-02-27T06:06:06;101078.16;;;6.95;100.00
32324;BME280;25666;44.350;9.222;2023-02-27T06:08:32;101072.03;;;7.07;100.00
32324;BME280;25666;44.350;9.222;2023-02-27T06:10:58;101080.97;;;7.04;100.00
32324;BME280;25666;44.350;9.222;2023-02-27T06:13:24;101071.56;;;7.13;100.00
32324;BME280;25666;44.350;9.222;2023-02-27T06:15:51;101082.66;;;7.13;100.00
32324;BME280;25666;44.350;9.222;2023-02-27T06:18:17;101081.34;;;7.11;100.00
32324;BME280;25666;44.350;9.222;2023-02-27T06:20:43;101098.09;;;7.14;100.00
32324;BME280;25666;44.350;9.222;2023-02-27T06:23:10;101090.31;;;7.16;100.00
32324;BME280;25666;44.350;9.222;2023-02-27T06:25:36;101087.38;;;7.13;100.00
32324;BME280;25666;44.350;9.222;2023-02-27T06:28:03;101101.84;;;7.10;100.00
32324;BME280;25666;44.350;9.222;2023-02-27T06:30:30;101097.50;;;7.17;100.00
32324;BME280;25666;44.350;9.222;2023-02-27T06:32:55;101098.47;;;7.21;100.00
32324;BME280;25666;44.350;9.222;2023-02-27T06:35:21;101096.22;;;7.23;100.00
32324;BME280;25666;44.350;9.222;2023-02-27T06:37:49;101100.81;;;7.36;100.00
32324;BME280;25666;44.350;9.222;2023-02-27T06:40:15;101113.22;;;7.39;100.00
32324;BME280;25666;44.350;9.222;2023-02-27T06:42:42;101123.28;;;7.35;100.00
32324;BME280;25666;44.350;9.222;2023-02-27T06:45:09;101129.28;;;7.28;100.00
32324;BME280;25666;44.350;9.222;2023-02-27T06:47:35;101129.50;;;7.40;100.00
32324;BME280;25666;44.350;9.222;2023-02-27T06:50:00;101124.75;;;7.32;100.00
32324;BME280;25666;44.350;9.222;2023-02-27T06:52:26;101134.38;;;7.35;100.00
32324;BME280;25666;44.350;9.222;2023-02-27T06:54:52;101144.44;;;7.31;100.00
32324;BME280;25666;44.350;9.222;2023-02-27T06:57:17;101146.13;;;7.40;100.00
32324;BME280;25666;44.350;9.222;2023-02-27T06:59:43;101149.03;;;7.35;100.00
32324;BME280;25666;44.350;9.222;2023-02-27T07:02:14;101154.69;;;7.30;100.00
32324;BME280;25666;44.350;9.222;2023-02-27T07:04:40;101175.53;;;7.28;100.00
32324;BME280;25666;44.350;9.222;2023-02-27T07:07:05;101165.75;;;7.30;100.00
32324;BME280;25666;44.350;9.222;2023-02-27T07:09:31;101164.00;;;7.34;100.00
32324;BME280;25666;44.350;9.222;2023-02-27T07:11:56;101160.38;;;7.25;100.00
32324;BME280;25666;44.350;9.222;2023-02-27T07:14:22;101153.25;;;7.33;100.00
32324;BME280;25666;44.350;9.222;2023-02-27T07:16:47;101152.66;;;7.44;100.00
32324;BME280;25666;44.350;9.222;2023-02-27T07:19:19;101155.53;;;7.39;100.00
32324;BME280;25666;44.350;9.222;2023-02-27T07:21:44;101191.78;;;7.51;100.00
32324;BME280;25666;44.350;9.222;2023-02-27T07:24:10;101173.19;;;7.52;100.00
32324;BME280;25666;44.350;9.222;2023-02-27T07:26:36;101170.19;;;7.31;100.00
32324;BME280;25666;44.350;9.222;2023-02-27T07:29:02;101163.53;;;7.41;100.00
32324;BME280;25666;44.350;9.222;2023-02-27T07:31:28;101163.22;;;7.42;100.00
32324;BME280;25666;44.350;9.222;2023-02-27T07:33:54;101174.22;;;7.65;100.00
32324;BME280;25666;44.350;9.222;2023-02-27T07:36:19;101171.63;;;7.60;100.00
32324;BME280;25666;44.350;9.222;2023-02-27T07:38:45;101168.47;;;7.52;100.00
32324;BME280;25666;44.350;9.222;2023-02-27T07:41:10;101168.69;;;7.65;100.00
32324;BME280;25666;44.350;9.222;2023-02-27T07:43:36;101182.06;;;7.63;100.00
32324;BME280;25666;44.350;9.222;2023-02-27T07:46:02;101184.00;;;7.62;100.00
32324;BME280;25666;44.350;9.222;2023-02-27T07:48:29;101180.28;;;7.67;100.00
32324;BME280;25666;44.350;9.222;2023-02-27T07:50:55;101186.59;;;7.59;100.00
32324;BME280;25666;44.350;9.222;2023-02-27T07:53:20;101181.13;;;7.76;100.00
32324;BME280;25666;44.350;9.222;2023-02-27T07:55:46;101191.41;;;7.84;100.00
32324;BME280;25666;44.350;9.222;2023-02-27T07:58:11;101192.50;;;7.66;100.00
32324;BME280;25666;44.350;9.222;2023-02-27T08:00:37;101189.72;;;7.66;100.00
32324;BME280;25666;44.350;9.222;2023-02-27T08:03:03;101190.06;;;7.64;100.00
32324;BME280;25666;44.350;9.222;2023-02-27T08:05:28;101206.84;;;7.68;100.00
32324;BME280;25666;44.350;9.222;2023-02-27T08:07:54;101198.06;;;7.74;100.00
32324;BME280;25666;44.350;9.222;2023-02-27T08:10:19;101215.69;;;7.78;100.00
32324;BME280;25666;44.350;9.222;2023-02-27T08:12:45;101215.31;;;7.71;100.00
32324;BME280;25666;44.350;9.222;2023-02-27T08:15:11;101207.22;;;7.83;100.00
32324;BME280;25666;44.350;9.222;2023-02-27T08:17:36;101212.50;;;8.02;100.00
32324;BME280;25666;44.350;9.222;2023-02-27T08:20:02;101233.78;;;7.76;100.00
32324;BME280;25666;44.350;9.222;2023-02-27T08:22:29;101239.41;;;7.62;100.00
32324;BME280;25666;44.350;9.222;2023-02-27T08:24:55;101220.59;;;7.81;100.00
32324;BME280;25666;44.350;9.222;2023-02-27T08:27:20;101228.25;;;7.84;100.00
32324;BME280;25666;44.350;9.222;2023-02-27T08:29:46;101224.16;;;7.73;100.00
32324;BME280;25666;44.350;9.222;2023-02-27T08:32:11;101230.19;;;7.75;100.00
32324;BME280;25666;44.350;9.222;2023-02-27T08:34:38;101237.41;;;7.85;100.00
32324;BME280;25666;44.350;9.222;2023-02-27T08:37:04;101240.06;;;7.68;100.00
32324;BME280;25666;44.350;9.222;2023-02-27T08:39:29;101230.38;;;7.87;100.00
32324;BME280;25666;44.350;9.222;2023-02-27T08:41:55;101232.03;;;7.88;100.00
32324;BME280;25666;44.350;9.222;2023-02-27T08:44:20;101259.06;;;7.83;100.00
32324;BME280;25666;44.350;9.222;2023-02-27T08:46:46;101231.00;;;7.76;100.00
32324;BME280;25666;44.350;9.222;2023-02-27T08:49:11;101240.13;;;7.76;100.00
32324;BME280;25666;44.350;9.222;2023-02-27T08:51:37;101247.69;;;7.93;100.00
32324;BME280;25666;44.350;9.222;2023-02-27T08:54:02;101245.94;;;8.05;100.00
32324;BME280;25666;44.350;9.222;2023-02-27T08:56:28;101243.03;;;8.11;98.31
32324;BME280;25666;44.350;9.222;2023-02-27T08:58:54;101244.44;;;7.99;99.40
32324;BME280;25666;44.350;9.222;2023-02-27T09:01:20;101252.28;;;7.97;100.00
32324;BME280;25666;44.350;9.222;2023-02-27T09:03:46;101243.03;;;8.11;95.55
32324;BME280;25666;44.350;9.222;2023-02-27T09:06:12;101252.75;;;7.99;100.00
32324;BME280;25666;44.350;9.222;2023-02-27T09:08:37;101259.47;;;7.98;94.95
32324;BME280;25666;44.350;9.222;2023-02-27T09:11:03;101252.28;;;7.97;99.43
32324;BME280;25666;44.350;9.222;2023-02-27T09:13:29;101268.88;;;7.89;98.46
32324;BME280;25666;44.350;9.222;2023-02-27T09:15:54;101263.41;;;8.06;98.99
32324;BME280;25666;44.350;9.222;2023-02-27T09:18:20;101259.84;;;8.14;97.80
32324;BME280;25666;44.350;9.222;2023-02-27T09:20:48;101251.59;;;8.40;100.00
32324;BME280;25666;44.350;9.222;2023-02-27T09:23:15;101253.53;;;8.31;97.88
32324;BME280;25666;44.350;9.222;2023-02-27T09:25:41;101266.00;;;8.50;98.24
32324;BME280;25666;44.350;9.222;2023-02-27T09:28:06;101272.59;;;8.24;95.79
32324;BME280;25666;44.350;9.222;2023-02-27T09:30:32;101274.44;;;8.28;96.46
32324;BME280;25666;44.350;9.222;2023-02-27T09:32:57;101280.50;;;8.47;96.69
32324;BME280;25666;44.350;9.222;2023-02-27T09:35:23;101284.22;;;8.34;94.19
32324;BME280;25666;44.350;9.222;2023-02-27T09:37:49;101298.16;;;8.21;92.95
32324;BME280;25666;44.350;9.222;2023-02-27T09:40:25;101296.38;;;8.16;90.68
32324;BME280;25666;44.350;9.222;2023-02-27T09:42:54;101286.22;;;8.42;92.99
32324;BME280;25666;44.350;9.222;2023-02-27T09:45:27;101295.09;;;8.22;93.63
32324;BME280;25666;44.350;9.222;2023-02-27T09:48:00;101303.00;;;8.37;95.50
32324;BME280;25666;44.350;9.222;2023-02-27T09:50:46;101300.16;;;8.20;94.64
32324;BME280;25666;44.350;9.222;2023-02-27T09:53:20;101299.69;;;8.27;96.29
32324;BME280;25666;44.350;9.222;2023-02-27T09:55:51;101301.91;;;8.55;98.92
32324;BME280;25666;44.350;9.222;2023-02-27T10:01:36;101300.25;;;8.46;92.92
32324;BME280;25666;44.350;9.222;2023-02-27T10:04:14;101324.06;;;8.47;96.23
32324;BME280;25666;44.350;9.222;2023-02-27T10:06:48;101322.78;;;8.44;93.04
32324;BME280;25666;44.350;9.222;2023-02-27T10:14:36;101327.34;;;8.49;93.06
32324;BME280;25666;44.350;9.222;2023-02-27T10:17:06;101327.09;;;8.76;90.76
32324;BME280;25666;44.350;9.222;2023-02-27T10:19:36;101312.56;;;8.96;92.30
32324;BME280;25666;44.350;9.222;2023-02-27T10:22:05;101326.63;;;9.00;97.64
32324;BME280;25666;44.350;9.222;2023-02-27T10:24:37;101324.50;;;9.31;97.45
32324;BME280;25666;44.350;9.222;2023-02-27T10:27:05;101336.28;;;9.20;95.99
32324;BME280;25666;44.350;9.222;2023-02-27T10:29:37;101341.19;;;9.23;91.32
32324;BME280;25666;44.350;9.222;2023-02-27T10:34:48;101349.34;;;9.36;93.25
32324;BME280;25666;44.350;9.222;2023-02-27T10:37:17;101347.88;;;9.30;90.44
32324;BME280;25666;44.350;9.222;2023-02-27T10:39:56;101343.94;;;9.40;90.46
32324;BME280;25666;44.350;9.222;2023-02-27T10:42:26;101344.13;;;9.52;92.73
32324;BME280;25666;44.350;9.222;2023-02-27T10:44:54;101341.00;;;9.53;87.52
32324;BME280;25666;44.350;9.222;2023-02-27T10:47:24;101351.31;;;9.36;86.07
32324;BME280;25666;44.350;9.222;2023-02-27T10:49:51;101356.88;;;9.36;85.67
32324;BME280;25666;44.350;9.222;2023-02-27T10:52:17;101350.16;;;9.54;84.48
32324;BME280;25666;44.350;9.222;2023-02-27T10:54:44;101354.41;;;9.51;84.20
32324;BME280;25666;44.350;9.222;2023-02-27T10:57:29;101357.34;;;9.63;88.23
32324;BME280;25666;44.350;9.222;2023-02-27T11:00:00;101356.19;;;9.64;85.72
32324;BME280;25666;44.350;9.222;2023-02-27T11:02:39;101390.38;;;9.39;80.95
32324;BME280;25666;44.350;9.222;2023-02-27T11:05:18;101372.72;;;9.61;79.58
32324;BME280;25666;44.350;9.222;2023-02-27T11:07:44;101372.06;;;9.64;83.39
32324;BME280;25666;44.350;9.222;2023-02-27T11:12:40;101381.53;;;9.63;79.23
32324;BME280;25666;44.350;9.222;2023-02-27T11:17:40;101377.28;;;9.74;79.16
32324;BME280;25666;44.350;9.222;2023-02-27T11:20:34;101355.75;;;10.09;82.16
32324;BME280;25666;44.350;9.222;2023-02-27T11:23:21;101368.09;;;9.65;79.48
32324;BME280;25666;44.350;9.222;2023-02-27T11:25:47;101371.88;;;9.60;82.67
32324;BME280;25666;44.350;9.222;2023-02-27T11:28:26;101367.91;;;9.87;79.02
32324;BME280;25666;44.350;9.222;2023-02-27T11:31:03;101366.56;;;9.93;81.56
32324;BME280;25666;44.350;9.222;2023-02-27T11:33:48;101367.13;;;9.52;78.61
32324;BME280;25666;44.350;9.222;2023-02-27T11:36:14;101375.78;;;9.77;80.69
32324;BME280;25666;44.350;9.222;2023-02-27T11:38:41;101372.00;;;9.90;83.07
32324;BME280;25666;44.350;9.222;2023-02-27T11:41:07;101376.75;;;9.81;82.44
32324;BME280;25666;44.350;9.222;2023-02-27T11:43:37;101375.75;;;9.94;82.99
32324;BME280;25666;44.350;9.222;2023-02-27T11:46:09;101371.00;;;9.94;79.93
32324;BME280;25666;44.350;9.222;2023-02-27T11:48:45;101373.31;;;9.84;81.10
32324;BME280;25666;44.350;9.222;2023-02-27T11:56:54;101372.34;;;9.80;81.43
32324;BME280;25666;44.350;9.222;2023-02-27T12:02:05;101371.31;;;10.01;81.45
32324;BME280;25666;44.350;9.222;2023-02-27T12:04:46;101381.16;;;9.99;83.31
32324;BME280;25666;44.350;9.222;2023-02-27T12:10:01;101371.78;;;10.03;84.47
32324;BME280;25666;44.350;9.222;2023-02-27T12:12:35;101373.59;;;10.08;83.18
32324;BME280;25666;44.350;9.222;2023-02-27T12:18:02;101375.13;;;9.71;80.49
32324;BME280;25666;44.350;9.222;2023-02-27T12:20:34;101372.81;;;9.82;83.46
32324;BME280;25666;44.350;9.222;2023-02-27T12:23:08;101369.88;;;9.78;82.27
32324;BME280;25666;44.350;9.222;2023-02-27T12:25:54;101372.69;;;9.69;79.61
32324;BME280;25666;44.350;9.222;2023-02-27T12:28:47;101376.44;;;9.82;89.49
32324;BME280;25666;44.350;9.222;2023-02-27T12:31:37;101369.56;;;9.88;82.45
32324;BME280;25666;44.350;9.222;2023-02-27T12:34:14;101375.00;;;9.67;84.54
32324;BME280;25666;44.350;9.222;2023-02-27T12:36:43;101378.75;;;9.54;78.69
32324;BME280;25666;44.350;9.222;2023-02-27T12:39:22;101376.44;;;9.82;83.65
32324;BME280;25666;44.350;9.222;2023-02-27T12:42:17;101377.72;;;9.85;82.67
32324;BME280;25666;44.350;9.222;2023-02-27T12:45:19;101374.63;;;9.86;80.26
32324;BME280;25666;44.350;9.222;2023-02-27T12:53:22;101384.28;;;9.80;83.60
32324;BME280;25666;44.350;9.222;2023-02-27T12:56:15;101389.84;;;9.80;83.00
32324;BME280;25666;44.350;9.222;2023-02-27T13:04:06;101396.88;;;9.86;81.27
32324;BME280;25666;44.350;9.222;2023-02-27T13:06:52;101389.84;;;9.72;76.94
32324;BME280;25666;44.350;9.222;2023-02-27T13:12:22;101394.88;;;10.04;82.30
32324;BME280;25666;44.350;9.222;2023-02-27T13:14:57;101397.16;;;9.93;90.68
32324;BME280;25666;44.350;9.222;2023-02-27T13:17:38;101394.56;;;9.97;83.03
32324;BME280;25666;44.350;9.222;2023-02-27T13:22:57;101392.09;;;10.04;83.05
32324;BME280;25666;44.350;9.222;2023-02-27T13:25:29;101400.75;;;10.11;80.06
32324;BME280;25666;44.350;9.222;2023-02-27T13:27:59;101405.38;;;9.90;75.29
32324;BME280;25666;44.350;9.222;2023-02-27T13:33:47;101418.47;;;9.63;77.15
32324;BME280;25666;44.350;9.222;2023-02-27T13:36:33;101419.44;;;10.02;84.34
32324;BME280;25666;44.350;9.222;2023-02-27T13:39:03;101426.91;;;10.10;77.93
32324;BME280;25666;44.350;9.222;2023-02-27T13:46:45;101427.44;;;9.95;76.70
32324;BME280;25666;44.350;9.222;2023-02-27T13:54:27;101414.00;;;9.97;71.77
32324;BME280;25666;44.350;9.222;2023-02-27T14:04:22;101420.53;;;10.09;77.55
32324;BME280;25666;44.350;9.222;2023-02-27T14:06:58;101434.13;;;10.11;74.12
32324;BME280;25666;44.350;9.222;2023-02-27T14:09:24;101423.63;;;10.25;75.60
32324;BME280;25666;44.350;9.222;2023-02-27T14:11:57;101430.19;;;10.29;78.20
32324;BME280;25666;44.350;9.222;2023-02-27T14:14:40;101421.34;;;10.27;74.49
32324;BME280;25666;44.350;9.222;2023-02-27T14:19:57;101431.41;;;10.57;86.25
32324;BME280;25666;44.350;9.222;2023-02-27T14:22:29;101434.72;;;10.42;79.79
32324;BME280;25666;44.350;9.222;2023-02-27T14:25:01;101438.50;;;10.38;72.72
32324;BME280;25666;44.350;9.222;2023-02-27T14:30:44;101432.78;;;10.34;73.79
32324;BME280;25666;44.350;9.222;2023-02-27T14:35:44;101435.56;;;10.34;72.81
32324;BME280;25666;44.350;9.222;2023-02-27T14:38:10;101445.19;;;10.45;74.71
32324;BME280;25666;44.350;9.222;2023-02-27T14:43:45;101443.75;;;10.31;71.23
32324;BME280;25666;44.350;9.222;2023-02-27T14:48:54;101441.28;;;10.38;73.12
32324;BME280;25666;44.350;9.222;2023-02-27T14:51:21;101442.44;;;10.37;72.66
32324;BME280;25666;44.350;9.222;2023-02-27T14:54:19;101437.34;;;10.39;73.97
32324;BME280;25666;44.350;9.222;2023-02-27T14:57:01;101433.25;;;10.45;73.86
32324;BME280;25666;44.350;9.222;2023-02-27T14:59:31;101444.72;;;10.35;72.02
32324;BME280;25666;44.350;9.222;2023-02-27T15:02:01;101444.91;;;10.30;70.79
32324;BME280;25666;44.350;9.222;2023-02-27T15:04:30;101442.94;;;10.13;69.40
32324;BME280;25666;44.350;9.222;2023-02-27T15:06:57;101459.16;;;9.94;69.08
32324;BME280;25666;44.350;9.222;2023-02-27T15:09:26;101446.56;;;10.05;72.11
32324;BME280;25666;44.350;9.222;2023-02-27T15:11:55;101444.75;;;10.09;71.86
32324;BME280;25666;44.350;9.222;2023-02-27T15:14:29;101450.47;;;10.12;70.99
32324;BME280;25666;44.350;9.222;2023-02-27T15:16:56;101457.66;;;10.31;77.59
32324;BME280;25666;44.350;9.222;2023-02-27T15:19:24;101453.09;;;10.26;75.98
32324;BME280;25666;44.350;9.222;2023-02-27T15:22:01;101457.81;;;10.43;73.48
32324;BME280;25666;44.350;9.222;2023-02-27T15:24:29;101447.66;;;10.38;78.78